MMAS

Jesus Teran Peredo International Airport

Airport
ICAO code
MMAS
IATA Code
AGU
Summary
ICAO Region
CARSAM
ICAO Territory
Location

Cotorina, Aguascalientes

Serving
Aguascalientes
Elevation
6112 ft
Coordinates
21° 42' 20" N , 102° 19' 4" W
KCC
Metar
MMAS 292042Z 00000KT 8SM BKN030 31/01 A3024 RMK SLP/// 5//// 9// 8/100 HZY

Lic. Jesús Terán Peredo International Airport, also known as Aguascalientes International Airport, serves Aguascalientes, the capital city of the state of Aguascalientes in Mexico.

Climatology

Semi-arid Climate (Köppen climate classification BSh)

Runways

Designator Length Width Surface Rops
4/22 1060 30 ASP No/No
17/35 3000 45 ASP No/No

Airport map

Aerial View

SKYbrary Partners:

Safety knowledge contributed by: